createdAt,value
2019-04-29T00:00:47.581Z,61.75
2019-04-29T00:03:20.136Z,61.85
2019-04-29T00:05:51.301Z,61.74
2019-04-29T00:08:22.449Z,61.83
2019-04-29T00:10:53.670Z,61.91
2019-04-29T00:13:25.271Z,62.12
2019-04-29T00:16:12.381Z,62.15
2019-04-29T00:18:59.934Z,62.20
2019-04-29T00:21:31.325Z,62.29
2019-04-29T00:24:04.076Z,62.25
2019-04-29T00:26:35.617Z,62.47
2019-04-29T00:29:06.834Z,62.82
2019-04-29T00:31:37.896Z,62.68
2019-04-29T00:34:10.105Z,62.43
2019-04-29T00:36:49.156Z,62.63
2019-04-29T00:39:45.135Z,62.71
2019-04-29T00:42:31.431Z,62.41
2019-04-29T00:45:03.185Z,62.61
2019-04-29T00:47:34.245Z,62.84
2019-04-29T00:50:05.670Z,62.51
2019-04-29T00:52:36.733Z,62.47
2019-04-29T00:55:11.531Z,62.34
2019-04-29T00:57:42.595Z,62.54
2019-04-29T01:00:19.884Z,62.46
2019-04-29T01:02:50.885Z,62.78
2019-04-29T01:05:21.925Z,62.31
2019-04-29T01:07:53.352Z,62.73
2019-04-29T01:10:24.491Z,62.83
2019-04-29T01:12:55.739Z,62.52
2019-04-29T01:15:27.097Z,62.56
2019-04-29T01:17:58.198Z,62.70
2019-04-29T01:20:29.283Z,62.52
2019-04-29T01:23:00.338Z,62.52
2019-04-29T01:25:31.377Z,62.49
2019-04-29T01:28:24.042Z,62.48
2019-04-29T01:31:00.029Z,62.34
2019-04-29T01:33:31.986Z,62.53
2019-04-29T01:36:31.255Z,62.56
2019-04-29T01:39:04.543Z,62.50
2019-04-29T01:42:02.434Z,62.58
2019-04-29T01:44:35.268Z,62.49
2019-04-29T01:47:06.426Z,62.44
2019-04-29T01:49:37.428Z,62.92
2019-04-29T01:52:08.695Z,63.08
2019-04-29T01:54:40.485Z,62.59
2019-04-29T01:57:11.635Z,62.38
2019-04-29T01:59:42.631Z,62.61
2019-04-29T02:02:13.635Z,62.63
2019-04-29T02:04:44.642Z,62.73
2019-04-29T02:07:15.814Z,63.20
2019-04-29T02:10:14.836Z,62.78
2019-04-29T02:12:45.802Z,62.76
2019-04-29T02:15:17.284Z,62.95
2019-04-29T02:17:48.664Z,62.66
2019-04-29T02:20:20.793Z,63.09
2019-04-29T02:23:11.780Z,63.19
2019-04-29T02:25:44.698Z,63.33
2019-04-29T02:28:15.732Z,63.46
2019-04-29T02:30:50.997Z,63.16
2019-04-29T02:33:22.236Z,63.22
2019-04-29T02:35:53.463Z,62.93
2019-04-29T02:38:37.922Z,62.99
2019-04-29T02:41:16.231Z,62.54
2019-04-29T02:43:49.129Z,62.38
2019-04-29T02:46:20.135Z,62.47
2019-04-29T02:48:51.216Z,62.24
2019-04-29T02:54:30.647Z,62.08
2019-04-29T02:57:23.630Z,62.70
2019-04-29T02:59:59.010Z,62.83
2019-04-29T03:02:49.092Z,62.76
2019-04-29T03:05:23.664Z,62.69
2019-04-29T03:07:54.754Z,63.45
2019-04-29T03:10:26.142Z,63.73
2019-04-29T03:12:57.500Z,63.91
2019-04-29T03:15:33.953Z,63.39
2019-04-29T03:18:05.189Z,63.20
2019-04-29T03:20:42.949Z,63.13
2019-04-29T03:23:16.340Z,62.89
2019-04-29T03:25:47.798Z,62.96
2019-04-29T03:28:18.810Z,62.97
2019-04-29T03:30:50.303Z,62.54
2019-04-29T03:33:21.378Z,62.29
2019-04-29T03:35:52.583Z,62.45
2019-04-29T03:38:23.656Z,62.52
2019-04-29T03:40:54.719Z,62.59
2019-04-29T03:43:25.791Z,63.02
2019-04-29T03:45:57.760Z,63.40
2019-04-29T03:48:28.921Z,63.27
2019-04-29T03:51:00.222Z,63.47
2019-04-29T03:53:31.242Z,63.92
2019-04-29T03:56:02.612Z,62.83
2019-04-29T03:58:33.612Z,62.69
2019-04-29T04:01:15.984Z,62.92
2019-04-29T04:03:51.142Z,62.60
2019-04-29T04:06:47.156Z,63.07
2019-04-29T04:09:23.380Z,63.24
2019-04-29T04:11:54.401Z,63.54
2019-04-29T04:14:25.683Z,63.34
2019-04-29T04:17:03.858Z,63.21
2019-04-29T04:19:35.061Z,62.66
2019-04-29T04:22:06.179Z,62.80
2019-04-29T04:24:37.214Z,62.75
2019-04-29T04:27:08.230Z,62.74
2019-04-29T04:29:40.812Z,62.44
2019-04-29T04:32:11.900Z,62.23
2019-04-29T04:34:43.200Z,61.96
2019-04-29T04:37:14.210Z,61.82
2019-04-29T04:39:46.679Z,61.61
2019-04-29T04:42:17.666Z,61.72
2019-04-29T04:44:49.251Z,62.44
2019-04-29T04:47:21.539Z,62.54
2019-04-29T04:49:52.615Z,62.78
2019-04-29T04:52:23.657Z,62.81
2019-04-29T04:54:55.838Z,62.47
2019-04-29T04:57:26.926Z,62.81
2019-04-29T04:59:59.067Z,62.25
2019-04-29T05:02:30.187Z,63.06
2019-04-29T05:05:01.194Z,62.59
2019-04-29T05:07:32.180Z,63.00
2019-04-29T05:10:03.271Z,62.95
2019-04-29T05:12:34.266Z,63.07
2019-04-29T05:15:06.012Z,63.96
2019-04-29T05:17:37.008Z,64.03
2019-04-29T05:20:09.591Z,64.58
2019-04-29T05:22:44.106Z,65.09
2019-04-29T05:25:15.431Z,64.77
2019-04-29T05:27:46.666Z,65.49
2019-04-29T05:30:17.834Z,65.11
2019-04-29T05:32:48.819Z,65.45
2019-04-29T05:35:24.804Z,65.30
2019-04-29T05:37:59.958Z,65.00
2019-04-29T05:40:38.029Z,64.61
2019-04-29T05:43:10.921Z,64.17
2019-04-29T05:46:17.056Z,65.18
2019-04-29T05:48:46.908Z,65.26
2019-04-29T05:51:35.946Z,65.27
2019-04-29T05:54:07.910Z,64.77
2019-04-29T05:56:38.941Z,64.61
2019-04-29T05:59:12.781Z,64.85
2019-04-29T06:01:47.172Z,65.07
2019-04-29T06:04:18.178Z,64.66
2019-04-29T06:06:49.249Z,65.31
2019-04-29T06:09:20.250Z,65.32
2019-04-29T06:11:51.340Z,65.43
2019-04-29T06:14:22.417Z,65.62
2019-04-29T06:16:57.632Z,66.14
2019-04-29T06:19:26.333Z,66.06
2019-04-29T06:21:57.654Z,66.29
2019-04-29T06:24:28.679Z,66.57
2019-04-29T06:27:00.047Z,66.52
2019-04-29T06:29:31.121Z,66.71
2019-04-29T06:32:02.293Z,66.75
2019-04-29T06:34:35.597Z,66.96
2019-04-29T06:37:06.345Z,67.26
2019-04-29T06:39:37.347Z,67.80
2019-04-29T06:42:08.357Z,67.25
2019-04-29T06:44:39.488Z,66.52
2019-04-29T06:47:11.052Z,66.11
2019-04-29T06:49:42.086Z,65.89
2019-04-29T06:52:13.082Z,65.47
2019-04-29T06:54:44.164Z,65.18
2019-04-29T06:57:15.231Z,64.69
2019-04-29T06:59:47.528Z,64.63
2019-04-29T07:02:19.266Z,64.13
2019-04-29T07:04:50.383Z,64.39
2019-04-29T07:07:21.704Z,63.31
2019-04-29T07:09:52.822Z,63.57
2019-04-29T07:12:23.892Z,63.00
2019-04-29T07:14:55.064Z,63.11
2019-04-29T07:17:26.380Z,63.33
2019-04-29T07:20:02.145Z,63.05
2019-04-29T07:22:31.342Z,63.05
2019-04-29T07:25:02.405Z,63.19
2019-04-29T07:27:34.461Z,63.38
2019-04-29T07:30:08.372Z,62.27
2019-04-29T07:32:42.158Z,61.79
2019-04-29T07:35:13.010Z,61.39
2019-04-29T07:37:44.024Z,61.36
2019-04-29T07:40:17.106Z,61.29
2019-04-29T07:42:48.267Z,60.90
2019-04-29T07:45:44.022Z,60.66
2019-04-29T07:48:12.419Z,60.59
2019-04-29T07:50:43.884Z,61.20
2019-04-29T07:53:14.921Z,60.87
2019-04-29T07:55:46.018Z,59.57
2019-04-29T07:58:17.044Z,59.15
2019-04-29T08:00:48.873Z,60.64
2019-04-29T08:03:21.160Z,59.67
2019-04-29T08:05:53.456Z,59.54
2019-04-29T08:08:25.537Z,58.77
2019-04-29T08:10:56.901Z,58.41
2019-04-29T08:13:28.495Z,57.88
2019-04-29T08:16:00.804Z,58.13
2019-04-29T08:18:31.896Z,58.62
2019-04-29T08:21:02.980Z,59.35
2019-04-29T08:23:40.894Z,58.52
2019-04-29T08:26:06.732Z,58.67
2019-04-29T08:28:38.848Z,57.37
2019-04-29T08:31:11.315Z,57.24
2019-04-29T08:33:46.277Z,58.14
2019-04-29T08:36:15.069Z,58.36
2019-04-29T08:38:46.340Z,57.59
2019-04-29T08:41:21.509Z,57.54
2019-04-29T08:44:16.831Z,57.69
2019-04-29T08:46:53.633Z,56.82
2019-04-29T08:49:24.820Z,56.89
2019-04-29T08:51:55.904Z,56.42
2019-04-29T08:54:26.943Z,56.04
2019-04-29T08:57:02.894Z,57.51
2019-04-29T08:59:31.042Z,55.84
2019-04-29T09:02:05.222Z,55.97
2019-04-29T09:04:35.343Z,56.41
2019-04-29T09:07:12.773Z,54.71
2019-04-29T09:09:39.313Z,54.64
2019-04-29T09:12:11.556Z,54.18
2019-04-29T09:14:43.037Z,54.53
2019-04-29T09:17:20.609Z,54.58
2019-04-29T09:19:47.011Z,53.63
2019-04-29T09:22:20.710Z,54.82
2019-04-29T09:25:16.852Z,55.22
2019-04-29T09:27:48.882Z,54.45
2019-04-29T09:30:20.104Z,54.67
2019-04-29T09:32:51.112Z,54.19
2019-04-29T09:35:22.288Z,54.55
2019-04-29T09:37:53.796Z,53.61
2019-04-29T09:40:28.329Z,53.75
2019-04-29T09:43:15.427Z,54.00
2019-04-29T09:45:46.846Z,54.31
2019-04-29T09:48:17.917Z,53.72
2019-04-29T09:50:49.036Z,52.91
2019-04-29T09:53:20.071Z,52.59
2019-04-29T09:55:51.332Z,52.70
2019-04-29T09:58:22.463Z,52.88
2019-04-29T10:01:13.872Z,51.58
2019-04-29T10:03:56.537Z,50.67
2019-04-29T10:06:30.021Z,51.53
2019-04-29T10:09:01.447Z,51.68
2019-04-29T10:11:34.516Z,52.79
2019-04-29T10:14:05.950Z,53.00
2019-04-29T10:16:56.002Z,53.50
2019-04-29T10:19:58.005Z,50.12
2019-04-29T10:22:29.058Z,49.96
2019-04-29T10:25:00.201Z,48.81
2019-04-29T10:27:31.483Z,50.01
2019-04-29T10:30:02.624Z,51.19
2019-04-29T10:32:37.821Z,51.56
2019-04-29T10:35:10.696Z,50.44
2019-04-29T10:37:42.981Z,50.81
2019-04-29T10:40:43.713Z,50.33
2019-04-29T10:43:24.686Z,50.60
2019-04-29T10:46:13.488Z,50.60
2019-04-29T10:48:52.551Z,49.67
2019-04-29T10:51:27.496Z,48.82
2019-04-29T10:53:58.760Z,47.04
2019-04-29T10:56:29.902Z,47.43
2019-04-29T10:59:04.522Z,47.57
2019-04-29T11:02:35.577Z,47.07
2019-04-29T11:05:31.543Z,47.97
2019-04-29T11:08:11.571Z,47.80
2019-04-29T11:10:44.801Z,47.43
2019-04-29T11:13:15.917Z,47.47
2019-04-29T11:15:49.543Z,47.13
2019-04-29T11:18:23.294Z,47.92
2019-04-29T11:20:55.309Z,47.37
2019-04-29T11:23:42.408Z,46.99
2019-04-29T11:26:32.390Z,46.98
2019-04-29T11:29:06.210Z,47.32
2019-04-29T11:31:37.684Z,47.11
2019-04-29T11:34:18.051Z,47.78
2019-04-29T11:36:49.314Z,47.19
2019-04-29T11:39:21.423Z,46.01
2019-04-29T11:41:54.551Z,46.14
2019-04-29T11:44:26.614Z,45.94
2019-04-29T11:46:59.207Z,45.33
2019-04-29T11:49:39.133Z,46.05
2019-04-29T11:52:10.482Z,46.06
2019-04-29T11:54:42.059Z,45.79
2019-04-29T11:57:20.245Z,44.75
2019-04-29T12:00:10.721Z,45.14
2019-04-29T12:02:48.814Z,44.87
2019-04-29T12:05:26.524Z,46.48
2019-04-29T12:07:57.634Z,45.91
2019-04-29T12:10:28.699Z,45.30
2019-04-29T12:13:01.358Z,45.75
2019-04-29T12:15:50.274Z,45.19
2019-04-29T12:18:37.988Z,45.58
2019-04-29T12:21:18.960Z,46.25
2019-04-29T12:23:52.163Z,45.08
2019-04-29T12:26:23.369Z,46.41
2019-04-29T12:28:54.796Z,46.15
2019-04-29T12:31:32.061Z,46.75
2019-04-29T12:34:21.998Z,46.36
2019-04-29T12:36:56.450Z,46.02
2019-04-29T12:39:44.962Z,44.62
2019-04-29T12:42:54.946Z,44.67
2019-04-29T12:45:28.956Z,43.58
2019-04-29T12:48:00.069Z,45.18
2019-04-29T12:50:31.121Z,44.01
2019-04-29T12:53:02.845Z,43.33
2019-04-29T12:55:45.897Z,43.04
2019-04-29T12:58:13.318Z,43.72
2019-04-29T13:00:48.161Z,45.65
2019-04-29T13:03:39.770Z,46.22
2019-04-29T13:06:13.801Z,46.03
2019-04-29T13:08:47.720Z,44.27
2019-04-29T13:11:20.783Z,45.87
2019-04-29T13:13:56.549Z,45.09
2019-04-29T13:16:41.099Z,44.59
2019-04-29T13:19:29.698Z,42.89
2019-04-29T13:21:59.639Z,43.08
2019-04-29T13:24:30.884Z,44.83
2019-04-29T13:27:15.410Z,45.41
2019-04-29T13:29:36.104Z,44.71
2019-04-29T13:32:07.346Z,43.57
2019-04-29T13:34:41.154Z,44.85
2019-04-29T13:37:19.007Z,44.82
2019-04-29T13:39:46.144Z,43.92
2019-04-29T13:42:17.675Z,42.80
2019-04-29T13:45:05.443Z,43.17
2019-04-29T13:47:40.623Z,42.43
2019-04-29T13:50:23.126Z,42.71
2019-04-29T13:52:48.477Z,42.46
2019-04-29T13:55:46.192Z,42.28
2019-04-29T13:57:54.908Z,42.63
2019-04-29T14:00:38.265Z,43.36
2019-04-29T14:03:15.513Z,43.57
2019-04-29T14:05:46.714Z,43.48
2019-04-29T14:08:17.762Z,42.49
2019-04-29T14:10:51.223Z,43.22
2019-04-29T14:13:21.769Z,43.67
2019-04-29T14:15:53.034Z,43.11
2019-04-29T14:18:24.115Z,42.12
2019-04-29T14:20:55.319Z,42.84
2019-04-29T14:23:26.628Z,43.45
2019-04-29T14:25:57.632Z,42.24
2019-04-29T14:28:29.116Z,42.27
2019-04-29T14:31:00.755Z,41.78
2019-04-29T14:33:37.323Z,42.00
2019-04-29T14:36:10.327Z,42.67
2019-04-29T14:38:42.683Z,41.96
2019-04-29T14:41:18.682Z,42.05
2019-04-29T14:44:03.730Z,42.68
2019-04-29T14:46:56.086Z,42.07
2019-04-29T14:49:35.488Z,41.61
2019-04-29T14:52:08.350Z,42.31
2019-04-29T14:54:41.695Z,42.28
2019-04-29T14:57:12.616Z,43.02
2019-04-29T14:59:43.791Z,43.07
2019-04-29T15:02:21.950Z,43.99
2019-04-29T15:04:53.275Z,44.55
2019-04-29T15:07:24.398Z,43.91
2019-04-29T15:09:56.324Z,44.10
2019-04-29T15:13:19.294Z,44.37
2019-04-29T15:15:44.122Z,44.65
2019-04-29T15:18:48.006Z,45.06
2019-04-29T15:21:32.039Z,45.54
2019-04-29T15:23:56.024Z,44.88
2019-04-29T15:26:27.016Z,45.05
2019-04-29T15:28:58.123Z,44.57
2019-04-29T15:31:29.145Z,44.91
2019-04-29T15:34:00.434Z,44.40
2019-04-29T15:36:34.825Z,44.06
2019-04-29T15:39:11.195Z,44.88
2019-04-29T15:41:42.342Z,44.54
2019-04-29T15:44:19.878Z,44.12
2019-04-29T15:46:47.037Z,43.68
2019-04-29T15:49:20.001Z,43.28
2019-04-29T15:51:51.226Z,43.70
2019-04-29T15:54:25.755Z,43.78
2019-04-29T15:56:55.770Z,43.49
2019-04-29T15:59:27.167Z,44.02
2019-04-29T16:01:59.230Z,43.82
2019-04-29T16:04:35.576Z,43.65
2019-04-29T16:07:37.996Z,44.36
2019-04-29T16:10:29.015Z,44.88
2019-04-29T16:13:03.954Z,43.90
2019-04-29T16:15:35.418Z,43.26
2019-04-29T16:18:10.562Z,43.27
2019-04-29T16:20:39.264Z,43.89
2019-04-29T16:23:10.384Z,44.40
2019-04-29T16:25:46.370Z,44.91
2019-04-29T16:28:14.374Z,44.52
2019-04-29T16:30:45.392Z,45.61
2019-04-29T16:33:16.400Z,46.96
2019-04-29T16:35:47.914Z,47.06
2019-04-29T16:38:19.153Z,47.05
2019-04-29T16:40:57.851Z,46.51
2019-04-29T16:43:36.982Z,45.67
2019-04-29T16:46:14.664Z,45.47
2019-04-29T16:48:45.964Z,44.57
2019-04-29T16:51:17.184Z,44.33
2019-04-29T16:53:48.279Z,45.30
2019-04-29T16:56:19.386Z,46.53
2019-04-29T16:58:50.442Z,48.06
2019-04-29T17:01:21.652Z,48.98
2019-04-29T17:03:52.670Z,49.79
2019-04-29T17:06:23.942Z,50.52
2019-04-29T17:09:23.498Z,50.96
2019-04-29T17:11:58.302Z,52.08
2019-04-29T17:14:28.995Z,52.99
2019-04-29T17:17:00.012Z,53.50
2019-04-29T17:19:31.046Z,52.67
2019-04-29T17:22:24.289Z,53.21
2019-04-29T17:24:35.636Z,53.33
2019-04-29T17:27:19.930Z,53.40
2019-04-29T17:30:12.144Z,53.56
2019-04-29T17:32:50.512Z,53.57
2019-04-29T17:35:23.029Z,53.54
2019-04-29T17:37:54.499Z,53.87
2019-04-29T17:40:26.570Z,54.29
2019-04-29T17:43:19.531Z,54.61
2019-04-29T17:46:04.426Z,54.68
2019-04-29T17:48:48.646Z,54.80
2019-04-29T17:51:18.227Z,55.04
2019-04-29T17:53:55.184Z,55.35
2019-04-29T17:56:35.294Z,54.72
2019-04-29T17:59:29.429Z,54.48
2019-04-29T18:02:07.717Z,54.37
2019-04-29T18:04:57.723Z,54.62
2019-04-29T18:07:35.542Z,55.98
2019-04-29T18:10:41.737Z,56.45
2019-04-29T18:13:18.801Z,56.13
2019-04-29T18:16:00.030Z,56.61
2019-04-29T18:18:26.372Z,57.83
2019-04-29T18:21:15.987Z,58.16
2019-04-29T18:24:05.159Z,58.69
2019-04-29T18:26:52.727Z,59.38
2019-04-29T18:29:23.006Z,59.83
2019-04-29T18:31:55.617Z,60.12
2019-04-29T18:34:29.333Z,60.78
2019-04-29T18:37:00.397Z,61.20
2019-04-29T18:39:33.168Z,61.75
2019-04-29T18:42:06.708Z,62.06
2019-04-29T18:44:40.578Z,62.33
2019-04-29T18:47:21.933Z,62.56
2019-04-29T18:49:45.392Z,62.80
2019-04-29T18:52:25.396Z,63.06
2019-04-29T18:54:50.019Z,62.96
2019-04-29T18:57:28.682Z,63.12
2019-04-29T18:59:54.942Z,63.67
2019-04-29T19:02:27.477Z,64.55
2019-04-29T19:05:04.544Z,64.78
2019-04-29T19:07:37.282Z,65.18
2019-04-29T19:10:14.067Z,65.29
2019-04-29T19:12:41.824Z,65.98
2019-04-29T19:15:15.112Z,65.83
2019-04-29T19:17:58.764Z,66.12
2019-04-29T19:20:20.451Z,66.52
2019-04-29T19:23:05.143Z,66.69
2019-04-29T19:25:25.506Z,66.65
2019-04-29T19:27:57.598Z,67.07
2019-04-29T19:30:29.385Z,66.27
2019-04-29T19:33:01.971Z,67.03
2019-04-29T19:35:34.615Z,66.91
2019-04-29T19:38:06.944Z,67.08
2019-04-29T19:40:42.464Z,67.88
2019-04-29T19:43:15.317Z,67.74
2019-04-29T19:45:48.844Z,67.04
2019-04-29T19:48:22.440Z,67.45
2019-04-29T19:51:13.618Z,67.62
2019-04-29T19:53:25.180Z,68.00
2019-04-29T19:56:04.205Z,67.92
2019-04-29T19:58:31.403Z,67.91
2019-04-29T20:01:13.115Z,67.50
2019-04-29T20:03:41.863Z,67.37
2019-04-29T20:06:21.457Z,68.23
2019-04-29T20:08:54.622Z,68.41
2019-04-29T20:11:31.636Z,68.15
2019-04-29T20:14:02.091Z,68.54
2019-04-29T20:16:56.074Z,68.56
2019-04-29T20:19:29.009Z,68.35
2019-04-29T20:22:07.594Z,68.77
2019-04-29T20:24:35.423Z,68.68
2019-04-29T20:27:06.472Z,68.81
2019-04-29T20:29:38.525Z,69.23
2019-04-29T20:32:11.617Z,69.33
2019-04-29T20:34:43.175Z,69.09
2019-04-29T20:37:16.140Z,69.03
2019-04-29T20:39:47.387Z,69.29
2019-04-29T20:42:19.029Z,69.38
2019-04-29T20:44:50.008Z,69.99
2019-04-29T20:47:23.651Z,69.19
2019-04-29T20:49:53.870Z,68.87
2019-04-29T20:52:38.204Z,69.41
2019-04-29T20:55:11.067Z,69.13
2019-04-29T20:57:42.439Z,69.13
2019-04-29T21:00:13.831Z,69.20
2019-04-29T21:02:46.379Z,69.35
2019-04-29T21:05:23.319Z,69.17
2019-04-29T21:08:02.122Z,69.02
2019-04-29T21:10:25.153Z,69.27
2019-04-29T21:13:20.221Z,69.15
2019-04-29T21:15:59.636Z,69.85
2019-04-29T21:18:30.860Z,69.57
2019-04-29T21:21:04.553Z,69.57
2019-04-29T21:23:36.721Z,68.94
2019-04-29T21:26:08.827Z,69.12
2019-04-29T21:28:41.815Z,69.49
2019-04-29T21:31:16.654Z,69.25
2019-04-29T21:33:46.475Z,69.26
2019-04-29T21:36:30.751Z,68.87
2019-04-29T21:39:15.353Z,69.25
2019-04-29T21:41:55.489Z,69.24
2019-04-29T21:44:27.797Z,69.27
2019-04-29T21:46:59.686Z,69.37
2019-04-29T21:49:42.749Z,68.79
2019-04-29T21:52:05.707Z,68.46
2019-04-29T21:54:36.966Z,68.69
2019-04-29T21:57:08.443Z,69.34
2019-04-29T21:59:41.440Z,69.36
2019-04-29T22:02:13.501Z,69.37
2019-04-29T22:04:46.803Z,69.14
2019-04-29T22:07:18.086Z,69.20
2019-04-29T22:09:50.287Z,69.68
2019-04-29T22:12:21.640Z,69.54
2019-04-29T22:14:54.181Z,69.72
2019-04-29T22:17:32.708Z,69.74
2019-04-29T22:20:03.906Z,69.63
2019-04-29T22:22:35.039Z,69.76
2019-04-29T22:25:09.627Z,69.71
2019-04-29T22:27:39.442Z,69.49
2019-04-29T22:30:15.468Z,69.52
2019-04-29T22:32:47.132Z,69.52
2019-04-29T22:35:19.075Z,69.78
2019-04-29T22:37:50.172Z,69.68
2019-04-29T22:40:21.266Z,69.45
2019-04-29T22:43:08.350Z,69.52
2019-04-29T22:45:33.987Z,69.56
2019-04-29T22:48:14.883Z,69.43
2019-04-29T22:50:39.841Z,69.45
2019-04-29T22:53:11.057Z,69.18
2019-04-29T22:55:42.214Z,69.65
2019-04-29T22:58:15.065Z,69.26
2019-04-29T23:00:46.381Z,69.36
2019-04-29T23:03:17.473Z,69.38
2019-04-29T23:05:48.506Z,69.39
2019-04-29T23:08:21.164Z,69.67
2019-04-29T23:10:52.338Z,69.38
2019-04-29T23:13:26.744Z,69.59
2019-04-29T23:16:01.741Z,69.51
2019-04-29T23:18:41.020Z,69.76
2019-04-29T23:21:37.461Z,69.69
2019-04-29T23:24:26.194Z,70.34
2019-04-29T23:26:57.464Z,70.21
2019-04-29T23:29:28.811Z,70.11
2019-04-29T23:32:04.800Z,69.98
2019-04-29T23:34:32.994Z,70.01
2019-04-29T23:37:04.081Z,70.04
2019-04-29T23:39:35.107Z,69.97
2019-04-29T23:42:12.029Z,69.83
2019-04-29T23:44:42.486Z,69.95
2019-04-29T23:47:13.000Z,69.94
2019-04-29T23:49:44.952Z,69.89
2019-04-29T23:52:17.974Z,69.94
2019-04-29T23:54:49.240Z,70.21
2019-04-29T23:57:45.963Z,70.16
